sensor_id;sensor_type;location;lat;lon;timestamp;P1;durP1;ratioP1;P2;durP2;ratioP2
57551;SDS011;43379;48.160;14.036;2023-04-06T00:00:52;7.50;;;6.80;;
57551;SDS011;43379;48.160;14.036;2023-04-06T00:03:18;9.33;;;8.37;;
57551;SDS011;43379;48.160;14.036;2023-04-06T00:05:44;7.90;;;7.17;;
57551;SDS011;43379;48.160;14.036;2023-04-06T00:08:10;7.63;;;6.93;;
57551;SDS011;43379;48.160;14.036;2023-04-06T00:10:36;7.73;;;6.80;;
57551;SDS011;43379;48.160;14.036;2023-04-06T00:13:02;7.73;;;6.93;;
57551;SDS011;43379;48.160;14.036;2023-04-06T00:15:27;7.10;;;6.50;;
57551;SDS011;43379;48.160;14.036;2023-04-06T00:17:53;7.93;;;7.23;;
57551;SDS011;43379;48.160;14.036;2023-04-06T00:20:20;6.93;;;6.23;;
57551;SDS011;43379;48.160;14.036;2023-04-06T00:22:46;8.53;;;6.60;;
57551;SDS011;43379;48.160;14.036;2023-04-06T00:25:11;9.33;;;6.67;;
57551;SDS011;43379;48.160;14.036;2023-04-06T00:27:37;7.47;;;6.77;;
57551;SDS011;43379;48.160;14.036;2023-04-06T00:30:04;8.30;;;7.50;;
57551;SDS011;43379;48.160;14.036;2023-04-06T00:32:31;7.80;;;7.00;;
57551;SDS011;43379;48.160;14.036;2023-04-06T00:34:56;8.90;;;8.00;;
57551;SDS011;43379;48.160;14.036;2023-04-06T00:37:23;9.27;;;7.70;;
57551;SDS011;43379;48.160;14.036;2023-04-06T00:39:48;10.10;;;8.00;;
57551;SDS011;43379;48.160;14.036;2023-04-06T00:42:16;9.03;;;7.20;;
57551;SDS011;43379;48.160;14.036;2023-04-06T00:44:50;11.77;;;8.27;;
57551;SDS011;43379;48.160;14.036;2023-04-06T00:47:19;8.23;;;7.43;;
57551;SDS011;43379;48.160;14.036;2023-04-06T00:49:46;8.53;;;7.63;;
57551;SDS011;43379;48.160;14.036;2023-04-06T00:52:12;8.00;;;7.27;;
57551;SDS011;43379;48.160;14.036;2023-04-06T00:54:37;9.27;;;8.37;;
57551;SDS011;43379;48.160;14.036;2023-04-06T00:57:03;7.83;;;7.20;;
57551;SDS011;43379;48.160;14.036;2023-04-06T00:59:29;8.30;;;7.47;;
57551;SDS011;43379;48.160;14.036;2023-04-06T01:01:55;8.50;;;7.70;;
57551;SDS011;43379;48.160;14.036;2023-04-06T01:04:21;9.53;;;7.73;;
57551;SDS011;43379;48.160;14.036;2023-04-06T01:06:50;8.30;;;7.50;;
57551;SDS011;43379;48.160;14.036;2023-04-06T01:09:18;9.40;;;8.27;;
57551;SDS011;43379;48.160;14.036;2023-04-06T01:11:44;8.50;;;7.60;;
57551;SDS011;43379;48.160;14.036;2023-04-06T01:14:10;9.60;;;8.63;;
57551;SDS011;43379;48.160;14.036;2023-04-06T01:16:36;12.53;;;8.47;;
57551;SDS011;43379;48.160;14.036;2023-04-06T01:19:11;9.10;;;8.27;;
57551;SDS011;43379;48.160;14.036;2023-04-06T01:21:38;9.67;;;8.67;;
57551;SDS011;43379;48.160;14.036;2023-04-06T01:24:04;9.70;;;8.50;;
57551;SDS011;43379;48.160;14.036;2023-04-06T01:26:31;9.60;;;8.70;;
57551;SDS011;43379;48.160;14.036;2023-04-06T01:28:57;10.87;;;9.87;;
57551;SDS011;43379;48.160;14.036;2023-04-06T01:31:23;10.87;;;9.10;;
57551;SDS011;43379;48.160;14.036;2023-04-06T01:33:49;10.17;;;9.10;;
57551;SDS011;43379;48.160;14.036;2023-04-06T01:36:16;9.50;;;8.60;;
57551;SDS011;43379;48.160;14.036;2023-04-06T01:38:41;8.97;;;8.10;;
57551;SDS011;43379;48.160;14.036;2023-04-06T01:41:07;9.50;;;8.57;;
57551;SDS011;43379;48.160;14.036;2023-04-06T01:43:33;9.70;;;8.70;;
57551;SDS011;43379;48.160;14.036;2023-04-06T01:45:59;9.77;;;7.77;;
57551;SDS011;43379;48.160;14.036;2023-04-06T01:48:26;9.33;;;8.50;;
57551;SDS011;43379;48.160;14.036;2023-04-06T01:50:52;10.53;;;8.83;;
57551;SDS011;43379;48.160;14.036;2023-04-06T01:53:18;10.30;;;9.40;;
57551;SDS011;43379;48.160;14.036;2023-04-06T01:55:43;11.03;;;9.37;;
57551;SDS011;43379;48.160;14.036;2023-04-06T01:58:09;9.53;;;8.50;;
57551;SDS011;43379;48.160;14.036;2023-04-06T02:00:35;9.43;;;8.30;;
57551;SDS011;43379;48.160;14.036;2023-04-06T02:03:01;8.63;;;7.83;;
57551;SDS011;43379;48.160;14.036;2023-04-06T02:05:26;8.03;;;7.23;;
57551;SDS011;43379;48.160;14.036;2023-04-06T02:07:54;8.50;;;7.70;;
57551;SDS011;43379;48.160;14.036;2023-04-06T02:10:20;9.13;;;8.07;;
57551;SDS011;43379;48.160;14.036;2023-04-06T02:12:46;8.33;;;7.53;;
57551;SDS011;43379;48.160;14.036;2023-04-06T02:15:11;10.33;;;9.27;;
57551;SDS011;43379;48.160;14.036;2023-04-06T02:17:38;8.37;;;7.60;;
57551;SDS011;43379;48.160;14.036;2023-04-06T02:20:04;8.53;;;7.73;;
57551;SDS011;43379;48.160;14.036;2023-04-06T02:22:31;8.80;;;8.00;;
57551;SDS011;43379;48.160;14.036;2023-04-06T02:24:56;9.03;;;8.10;;
57551;SDS011;43379;48.160;14.036;2023-04-06T02:27:22;7.83;;;7.10;;
57551;SDS011;43379;48.160;14.036;2023-04-06T02:29:48;9.07;;;8.20;;
57551;SDS011;43379;48.160;14.036;2023-04-06T02:32:13;8.90;;;8.00;;
57551;SDS011;43379;48.160;14.036;2023-04-06T02:34:39;9.97;;;8.93;;
57551;SDS011;43379;48.160;14.036;2023-04-06T02:37:05;9.40;;;8.40;;
57551;SDS011;43379;48.160;14.036;2023-04-06T02:39:30;10.67;;;8.50;;
57551;SDS011;43379;48.160;14.036;2023-04-06T02:41:56;9.17;;;8.27;;
57551;SDS011;43379;48.160;14.036;2023-04-06T02:44:22;10.03;;;8.03;;
57551;SDS011;43379;48.160;14.036;2023-04-06T02:46:48;8.80;;;7.90;;
57551;SDS011;43379;48.160;14.036;2023-04-06T02:49:13;10.10;;;9.20;;
57551;SDS011;43379;48.160;14.036;2023-04-06T02:51:39;9.63;;;8.60;;
57551;SDS011;43379;48.160;14.036;2023-04-06T02:54:05;10.30;;;9.40;;
57551;SDS011;43379;48.160;14.036;2023-04-06T02:56:30;8.93;;;8.07;;
57551;SDS011;43379;48.160;14.036;2023-04-06T02:58:56;9.33;;;8.43;;
57551;SDS011;43379;48.160;14.036;2023-04-06T03:01:22;9.90;;;9.00;;
57551;SDS011;43379;48.160;14.036;2023-04-06T03:03:47;11.30;;;10.20;;
57551;SDS011;43379;48.160;14.036;2023-04-06T03:06:13;10.57;;;9.67;;
57551;SDS011;43379;48.160;14.036;2023-04-06T03:08:39;11.60;;;10.47;;
57551;SDS011;43379;48.160;14.036;2023-04-06T03:11:05;10.17;;;9.07;;
57551;SDS011;43379;48.160;14.036;2023-04-06T03:13:30;13.03;;;9.67;;
57551;SDS011;43379;48.160;14.036;2023-04-06T03:15:56;10.90;;;8.57;;
57551;SDS011;43379;48.160;14.036;2023-04-06T03:18:23;11.03;;;8.40;;
57551;SDS011;43379;48.160;14.036;2023-04-06T03:20:49;10.03;;;9.13;;
57551;SDS011;43379;48.160;14.036;2023-04-06T03:23:15;10.23;;;8.87;;
57551;SDS011;43379;48.160;14.036;2023-04-06T03:25:41;11.60;;;9.00;;
57551;SDS011;43379;48.160;14.036;2023-04-06T03:28:07;9.50;;;8.70;;
57551;SDS011;43379;48.160;14.036;2023-04-06T03:30:33;10.20;;;9.10;;
57551;SDS011;43379;48.160;14.036;2023-04-06T03:32:59;9.97;;;8.90;;
57551;SDS011;43379;48.160;14.036;2023-04-06T03:35:25;9.90;;;8.97;;
57551;SDS011;43379;48.160;14.036;2023-04-06T03:37:51;11.77;;;9.03;;
57551;SDS011;43379;48.160;14.036;2023-04-06T03:40:16;10.00;;;9.17;;
57551;SDS011;43379;48.160;14.036;2023-04-06T03:42:42;9.80;;;9.00;;
57551;SDS011;43379;48.160;14.036;2023-04-06T03:45:08;9.90;;;8.87;;
57551;SDS011;43379;48.160;14.036;2023-04-06T03:47:34;10.70;;;9.60;;
57551;SDS011;43379;48.160;14.036;2023-04-06T03:50:00;10.40;;;9.40;;
57551;SDS011;43379;48.160;14.036;2023-04-06T03:52:25;11.90;;;9.63;;
57551;SDS011;43379;48.160;14.036;2023-04-06T03:54:51;10.40;;;9.27;;
57551;SDS011;43379;48.160;14.036;2023-04-06T03:57:17;11.43;;;10.50;;
57551;SDS011;43379;48.160;14.036;2023-04-06T03:59:43;12.03;;;10.20;;
57551;SDS011;43379;48.160;14.036;2023-04-06T04:02:08;9.40;;;8.50;;
57551;SDS011;43379;48.160;14.036;2023-04-06T04:04:34;8.80;;;8.10;;
57551;SDS011;43379;48.160;14.036;2023-04-06T04:07:00;10.97;;;9.50;;
57551;SDS011;43379;48.160;14.036;2023-04-06T04:09:25;10.03;;;9.10;;
57551;SDS011;43379;48.160;14.036;2023-04-06T04:11:51;10.60;;;9.30;;
57551;SDS011;43379;48.160;14.036;2023-04-06T04:14:17;12.03;;;10.10;;
57551;SDS011;43379;48.160;14.036;2023-04-06T04:16:42;12.10;;;10.80;;
57551;SDS011;43379;48.160;14.036;2023-04-06T04:19:08;14.13;;;10.87;;
57551;SDS011;43379;48.160;14.036;2023-04-06T04:21:41;10.70;;;9.70;;
57551;SDS011;43379;48.160;14.036;2023-04-06T04:24:11;10.97;;;9.87;;
57551;SDS011;43379;48.160;14.036;2023-04-06T04:26:37;11.83;;;10.43;;
57551;SDS011;43379;48.160;14.036;2023-04-06T04:29:03;12.50;;;10.50;;
57551;SDS011;43379;48.160;14.036;2023-04-06T04:31:29;11.20;;;10.10;;
57551;SDS011;43379;48.160;14.036;2023-04-06T04:33:55;11.00;;;9.90;;
57551;SDS011;43379;48.160;14.036;2023-04-06T04:36:21;11.67;;;9.97;;
57551;SDS011;43379;48.160;14.036;2023-04-06T04:38:46;9.63;;;8.73;;
57551;SDS011;43379;48.160;14.036;2023-04-06T04:41:12;10.87;;;9.80;;
57551;SDS011;43379;48.160;14.036;2023-04-06T04:43:38;11.17;;;10.07;;
57551;SDS011;43379;48.160;14.036;2023-04-06T04:46:04;10.20;;;9.20;;
57551;SDS011;43379;48.160;14.036;2023-04-06T04:48:30;10.30;;;9.40;;
57551;SDS011;43379;48.160;14.036;2023-04-06T04:50:55;12.97;;;10.53;;
57551;SDS011;43379;48.160;14.036;2023-04-06T04:53:21;11.30;;;8.90;;
57551;SDS011;43379;48.160;14.036;2023-04-06T04:55:47;10.23;;;9.33;;
57551;SDS011;43379;48.160;14.036;2023-04-06T04:58:13;11.40;;;10.27;;
57551;SDS011;43379;48.160;14.036;2023-04-06T05:00:45;10.57;;;9.57;;
57551;SDS011;43379;48.160;14.036;2023-04-06T05:03:17;10.43;;;9.43;;
57551;SDS011;43379;48.160;14.036;2023-04-06T05:05:46;11.03;;;9.90;;
57551;SDS011;43379;48.160;14.036;2023-04-06T05:08:11;12.17;;;10.87;;
57551;SDS011;43379;48.160;14.036;2023-04-06T05:10:37;12.57;;;11.20;;
57551;SDS011;43379;48.160;14.036;2023-04-06T05:13:03;13.00;;;11.80;;
57551;SDS011;43379;48.160;14.036;2023-04-06T05:15:29;13.90;;;12.40;;
57551;SDS011;43379;48.160;14.036;2023-04-06T05:17:55;13.63;;;12.23;;
57551;SDS011;43379;48.160;14.036;2023-04-06T05:20:21;16.00;;;13.07;;
57551;SDS011;43379;48.160;14.036;2023-04-06T05:22:46;13.00;;;11.70;;
57551;SDS011;43379;48.160;14.036;2023-04-06T05:25:12;13.93;;;12.53;;
57551;SDS011;43379;48.160;14.036;2023-04-06T05:27:38;11.87;;;10.40;;
57551;SDS011;43379;48.160;14.036;2023-04-06T05:30:05;12.83;;;10.93;;
57551;SDS011;43379;48.160;14.036;2023-04-06T05:32:32;13.17;;;11.77;;
57551;SDS011;43379;48.160;14.036;2023-04-06T05:34:58;13.07;;;11.63;;
57551;SDS011;43379;48.160;14.036;2023-04-06T05:37:24;10.87;;;9.87;;
57551;SDS011;43379;48.160;14.036;2023-04-06T05:39:49;14.70;;;11.60;;
57551;SDS011;43379;48.160;14.036;2023-04-06T05:42:15;13.77;;;11.13;;
57551;SDS011;43379;48.160;14.036;2023-04-06T05:44:41;15.17;;;10.80;;
57551;SDS011;43379;48.160;14.036;2023-04-06T05:47:07;13.17;;;10.67;;
57551;SDS011;43379;48.160;14.036;2023-04-06T05:49:33;12.00;;;10.80;;
57551;SDS011;43379;48.160;14.036;2023-04-06T05:51:59;12.30;;;10.37;;
57551;SDS011;43379;48.160;14.036;2023-04-06T05:54:25;16.33;;;10.30;;
57551;SDS011;43379;48.160;14.036;2023-04-06T05:56:51;13.93;;;11.50;;
57551;SDS011;43379;48.160;14.036;2023-04-06T05:59:17;13.93;;;11.60;;
57551;SDS011;43379;48.160;14.036;2023-04-06T06:01:42;17.60;;;13.00;;
57551;SDS011;43379;48.160;14.036;2023-04-06T06:04:08;17.47;;;13.60;;
57551;SDS011;43379;48.160;14.036;2023-04-06T06:06:34;16.20;;;13.40;;
57551;SDS011;43379;48.160;14.036;2023-04-06T06:09:00;16.03;;;11.20;;
57551;SDS011;43379;48.160;14.036;2023-04-06T06:11:28;17.50;;;11.90;;
57551;SDS011;43379;48.160;14.036;2023-04-06T06:13:54;16.30;;;13.20;;
57551;SDS011;43379;48.160;14.036;2023-04-06T06:16:20;14.93;;;12.33;;
57551;SDS011;43379;48.160;14.036;2023-04-06T06:18:46;13.13;;;11.80;;
57551;SDS011;43379;48.160;14.036;2023-04-06T06:21:12;12.90;;;11.63;;
57551;SDS011;43379;48.160;14.036;2023-04-06T06:23:38;15.80;;;12.90;;
57551;SDS011;43379;48.160;14.036;2023-04-06T06:26:04;14.73;;;11.53;;
57551;SDS011;43379;48.160;14.036;2023-04-06T06:28:30;11.57;;;10.37;;
57551;SDS011;43379;48.160;14.036;2023-04-06T06:30:56;12.33;;;10.53;;
57551;SDS011;43379;48.160;14.036;2023-04-06T06:33:23;11.93;;;10.10;;
57551;SDS011;43379;48.160;14.036;2023-04-06T06:35:49;12.03;;;10.83;;
57551;SDS011;43379;48.160;14.036;2023-04-06T06:38:16;10.80;;;9.90;;
57551;SDS011;43379;48.160;14.036;2023-04-06T06:40:42;11.73;;;10.53;;
57551;SDS011;43379;48.160;14.036;2023-04-06T06:43:08;11.13;;;10.13;;
57551;SDS011;43379;48.160;14.036;2023-04-06T06:45:33;10.90;;;9.67;;
57551;SDS011;43379;48.160;14.036;2023-04-06T06:47:59;11.30;;;10.20;;
57551;SDS011;43379;48.160;14.036;2023-04-06T06:50:25;10.37;;;9.37;;
57551;SDS011;43379;48.160;14.036;2023-04-06T06:52:50;11.10;;;9.30;;
57551;SDS011;43379;48.160;14.036;2023-04-06T06:55:16;12.77;;;11.57;;
57551;SDS011;43379;48.160;14.036;2023-04-06T06:57:44;21.00;;;13.00;;
57551;SDS011;43379;48.160;14.036;2023-04-06T07:00:11;13.03;;;11.90;;
57551;SDS011;43379;48.160;14.036;2023-04-06T07:02:38;17.67;;;14.20;;
57551;SDS011;43379;48.160;14.036;2023-04-06T07:05:05;14.67;;;13.07;;
57551;SDS011;43379;48.160;14.036;2023-04-06T07:07:31;19.10;;;14.50;;
57551;SDS011;43379;48.160;14.036;2023-04-06T07:09:57;17.93;;;15.40;;
57551;SDS011;43379;48.160;14.036;2023-04-06T07:12:23;19.57;;;13.60;;
57551;SDS011;43379;48.160;14.036;2023-04-06T07:14:49;18.93;;;14.40;;
57551;SDS011;43379;48.160;14.036;2023-04-06T07:17:15;17.63;;;14.57;;
57551;SDS011;43379;48.160;14.036;2023-04-06T07:19:40;15.83;;;14.20;;
57551;SDS011;43379;48.160;14.036;2023-04-06T07:22:06;16.57;;;13.80;;
57551;SDS011;43379;48.160;14.036;2023-04-06T07:24:32;20.77;;;14.07;;
57551;SDS011;43379;48.160;14.036;2023-04-06T07:26:58;19.53;;;14.40;;
57551;SDS011;43379;48.160;14.036;2023-04-06T07:29:25;16.00;;;13.63;;
57551;SDS011;43379;48.160;14.036;2023-04-06T07:31:52;15.97;;;13.90;;
57551;SDS011;43379;48.160;14.036;2023-04-06T07:34:17;16.70;;;13.73;;
57551;SDS011;43379;48.160;14.036;2023-04-06T07:36:43;19.43;;;14.00;;
57551;SDS011;43379;48.160;14.036;2023-04-06T07:39:09;14.33;;;12.87;;
57551;SDS011;43379;48.160;14.036;2023-04-06T07:41:35;15.43;;;13.77;;
57551;SDS011;43379;48.160;14.036;2023-04-06T07:44:01;15.10;;;13.50;;
57551;SDS011;43379;48.160;14.036;2023-04-06T07:46:27;19.13;;;14.13;;
57551;SDS011;43379;48.160;14.036;2023-04-06T07:48:53;15.13;;;12.30;;
57551;SDS011;43379;48.160;14.036;2023-04-06T07:51:18;13.80;;;12.50;;
57551;SDS011;43379;48.160;14.036;2023-04-06T07:53:44;13.83;;;12.43;;
57551;SDS011;43379;48.160;14.036;2023-04-06T07:56:10;11.87;;;10.67;;
57551;SDS011;43379;48.160;14.036;2023-04-06T07:58:37;13.20;;;11.90;;
57551;SDS011;43379;48.160;14.036;2023-04-06T08:01:03;15.70;;;14.00;;
57551;SDS011;43379;48.160;14.036;2023-04-06T08:03:29;14.63;;;13.20;;
57551;SDS011;43379;48.160;14.036;2023-04-06T08:05:55;16.00;;;13.10;;
57551;SDS011;43379;48.160;14.036;2023-04-06T08:08:20;16.33;;;12.80;;
57551;SDS011;43379;48.160;14.036;2023-04-06T08:10:47;13.67;;;12.27;;
57551;SDS011;43379;48.160;14.036;2023-04-06T08:13:13;13.13;;;11.80;;
57551;SDS011;43379;48.160;14.036;2023-04-06T08:15:40;18.63;;;12.97;;
57551;SDS011;43379;48.160;14.036;2023-04-06T08:18:05;16.53;;;13.27;;
57551;SDS011;43379;48.160;14.036;2023-04-06T08:20:31;14.13;;;12.33;;
57551;SDS011;43379;48.160;14.036;2023-04-06T08:22:57;15.33;;;13.20;;
57551;SDS011;43379;48.160;14.036;2023-04-06T08:25:22;16.70;;;13.53;;
57551;SDS011;43379;48.160;14.036;2023-04-06T08:27:48;14.20;;;12.73;;
57551;SDS011;43379;48.160;14.036;2023-04-06T08:30:14;13.23;;;11.93;;
57551;SDS011;43379;48.160;14.036;2023-04-06T08:32:40;12.63;;;11.37;;
57551;SDS011;43379;48.160;14.036;2023-04-06T08:35:06;11.67;;;10.67;;
57551;SDS011;43379;48.160;14.036;2023-04-06T08:37:33;10.53;;;9.53;;
57551;SDS011;43379;48.160;14.036;2023-04-06T08:39:58;12.40;;;10.27;;
57551;SDS011;43379;48.160;14.036;2023-04-06T08:42:25;10.17;;;8.73;;
57551;SDS011;43379;48.160;14.036;2023-04-06T08:44:51;9.10;;;8.20;;
57551;SDS011;43379;48.160;14.036;2023-04-06T08:47:18;9.00;;;8.20;;
57551;SDS011;43379;48.160;14.036;2023-04-06T08:49:44;8.27;;;7.57;;
57551;SDS011;43379;48.160;14.036;2023-04-06T08:52:10;9.30;;;8.50;;
57551;SDS011;43379;48.160;14.036;2023-04-06T08:54:37;8.60;;;7.70;;
57551;SDS011;43379;48.160;14.036;2023-04-06T08:57:03;9.07;;;8.17;;
57551;SDS011;43379;48.160;14.036;2023-04-06T08:59:30;8.77;;;7.87;;
57551;SDS011;43379;48.160;14.036;2023-04-06T09:01:57;7.50;;;6.90;;
57551;SDS011;43379;48.160;14.036;2023-04-06T09:04:24;7.27;;;6.67;;
57551;SDS011;43379;48.160;14.036;2023-04-06T09:06:51;8.10;;;7.37;;
57551;SDS011;43379;48.160;14.036;2023-04-06T09:09:17;9.03;;;7.93;;
57551;SDS011;43379;48.160;14.036;2023-04-06T09:11:49;7.80;;;7.00;;
57551;SDS011;43379;48.160;14.036;2023-04-06T09:14:16;8.17;;;7.37;;
57551;SDS011;43379;48.160;14.036;2023-04-06T09:16:43;7.37;;;6.80;;
57551;SDS011;43379;48.160;14.036;2023-04-06T09:19:11;8.23;;;7.53;;
57551;SDS011;43379;48.160;14.036;2023-04-06T09:21:38;8.33;;;6.50;;
57551;SDS011;43379;48.160;14.036;2023-04-06T09:24:05;7.90;;;7.20;;
57551;SDS011;43379;48.160;14.036;2023-04-06T09:26:32;7.83;;;7.13;;
57551;SDS011;43379;48.160;14.036;2023-04-06T09:29:08;8.50;;;6.97;;
57551;SDS011;43379;48.160;14.036;2023-04-06T09:31:34;6.30;;;5.70;;
57551;SDS011;43379;48.160;14.036;2023-04-06T09:34:00;8.10;;;7.30;;
57551;SDS011;43379;48.160;14.036;2023-04-06T09:36:34;7.50;;;6.90;;
57551;SDS011;43379;48.160;14.036;2023-04-06T09:39:05;8.47;;;6.70;;
57551;SDS011;43379;48.160;14.036;2023-04-06T09:41:32;7.93;;;7.17;;
57551;SDS011;43379;48.160;14.036;2023-04-06T09:46:35;8.10;;;6.90;;
57551;SDS011;43379;48.160;14.036;2023-04-06T09:49:02;7.60;;;6.90;;
57551;SDS011;43379;48.160;14.036;2023-04-06T09:51:29;8.50;;;7.70;;
57551;SDS011;43379;48.160;14.036;2023-04-06T09:53:56;8.37;;;7.67;;
57551;SDS011;43379;48.160;14.036;2023-04-06T09:56:28;7.50;;;6.90;;
57551;SDS011;43379;48.160;14.036;2023-04-06T09:59:02;6.70;;;6.10;;
57551;SDS011;43379;48.160;14.036;2023-04-06T10:01:33;7.53;;;6.83;;
57551;SDS011;43379;48.160;14.036;2023-04-06T10:04:10;7.50;;;6.90;;
57551;SDS011;43379;48.160;14.036;2023-04-06T10:06:50;7.43;;;6.60;;
57551;SDS011;43379;48.160;14.036;2023-04-06T10:09:17;7.93;;;6.83;;
57551;SDS011;43379;48.160;14.036;2023-04-06T10:11:48;7.03;;;6.33;;
57551;SDS011;43379;48.160;14.036;2023-04-06T10:14:15;6.87;;;6.07;;
57551;SDS011;43379;48.160;14.036;2023-04-06T10:16:42;7.30;;;6.10;;
57551;SDS011;43379;48.160;14.036;2023-04-06T10:19:19;7.37;;;6.77;;
57551;SDS011;43379;48.160;14.036;2023-04-06T10:21:50;7.13;;;6.43;;
57551;SDS011;43379;48.160;14.036;2023-04-06T10:24:19;8.77;;;6.10;;
57551;SDS011;43379;48.160;14.036;2023-04-06T10:26:56;7.20;;;6.50;;
57551;SDS011;43379;48.160;14.036;2023-04-06T10:29:44;7.00;;;6.37;;
57551;SDS011;43379;48.160;14.036;2023-04-06T10:32:11;7.30;;;6.57;;
57551;SDS011;43379;48.160;14.036;2023-04-06T10:34:37;6.20;;;5.60;;
57551;SDS011;43379;48.160;14.036;2023-04-06T10:37:13;7.27;;;5.80;;
57551;SDS011;43379;48.160;14.036;2023-04-06T10:39:46;5.97;;;5.47;;
57551;SDS011;43379;48.160;14.036;2023-04-06T10:42:36;6.10;;;5.50;;
57551;SDS011;43379;48.160;14.036;2023-04-06T10:45:05;6.67;;;6.00;;
57551;SDS011;43379;48.160;14.036;2023-04-06T10:47:41;6.05;;;5.55;;
57551;SDS011;43379;48.160;14.036;2023-04-06T10:50:06;6.77;;;6.10;;
57551;SDS011;43379;48.160;14.036;2023-04-06T10:52:32;6.80;;;6.20;;
57551;SDS011;43379;48.160;14.036;2023-04-06T10:54:58;7.60;;;6.40;;
57551;SDS011;43379;48.160;14.036;2023-04-06T10:57:28;6.27;;;5.77;;
57551;SDS011;43379;48.160;14.036;2023-04-06T10:59:54;6.47;;;5.83;;
57551;SDS011;43379;48.160;14.036;2023-04-06T11:02:20;6.93;;;6.17;;
57551;SDS011;43379;48.160;14.036;2023-04-06T11:04:53;7.03;;;6.50;;
57551;SDS011;43379;48.160;14.036;2023-04-06T11:07:24;7.00;;;6.40;;
57551;SDS011;43379;48.160;14.036;2023-04-06T11:09:51;6.73;;;6.13;;
57551;SDS011;43379;48.160;14.036;2023-04-06T11:12:35;7.23;;;6.63;;
57551;SDS011;43379;48.160;14.036;2023-04-06T11:15:02;6.87;;;6.27;;
57551;SDS011;43379;48.160;14.036;2023-04-06T11:17:32;7.20;;;6.60;;
57551;SDS011;43379;48.160;14.036;2023-04-06T11:20:01;7.30;;;6.70;;
57551;SDS011;43379;48.160;14.036;2023-04-06T11:22:28;5.70;;;5.30;;
57551;SDS011;43379;48.160;14.036;2023-04-06T11:25:07;8.67;;;6.50;;
57551;SDS011;43379;48.160;14.036;2023-04-06T11:27:33;7.37;;;6.77;;
57551;SDS011;43379;48.160;14.036;2023-04-06T11:30:00;7.00;;;6.40;;
57551;SDS011;43379;48.160;14.036;2023-04-06T11:32:27;7.07;;;6.47;;
57551;SDS011;43379;48.160;14.036;2023-04-06T11:34:53;8.10;;;7.33;;
57551;SDS011;43379;48.160;14.036;2023-04-06T11:37:18;6.30;;;5.80;;
57551;SDS011;43379;48.160;14.036;2023-04-06T11:39:51;6.80;;;6.23;;
57551;SDS011;43379;48.160;14.036;2023-04-06T11:42:28;7.20;;;6.60;;
57551;SDS011;43379;48.160;14.036;2023-04-06T11:44:55;7.77;;;7.07;;
57551;SDS011;43379;48.160;14.036;2023-04-06T11:47:27;7.97;;;7.27;;
57551;SDS011;43379;48.160;14.036;2023-04-06T11:52:33;7.47;;;6.77;;
57551;SDS011;43379;48.160;14.036;2023-04-06T11:55:09;6.70;;;6.10;;
57551;SDS011;43379;48.160;14.036;2023-04-06T11:57:36;7.10;;;6.50;;
57551;SDS011;43379;48.160;14.036;2023-04-06T12:00:02;7.23;;;6.63;;
57551;SDS011;43379;48.160;14.036;2023-04-06T12:02:28;6.63;;;6.13;;
57551;SDS011;43379;48.160;14.036;2023-04-06T12:04:53;6.80;;;6.20;;
57551;SDS011;43379;48.160;14.036;2023-04-06T12:07:19;6.40;;;5.87;;
57551;SDS011;43379;48.160;14.036;2023-04-06T12:09:45;6.10;;;5.60;;
57551;SDS011;43379;48.160;14.036;2023-04-06T12:12:10;7.30;;;6.40;;
57551;SDS011;43379;48.160;14.036;2023-04-06T12:14:36;6.53;;;6.00;;
57551;SDS011;43379;48.160;14.036;2023-04-06T12:17:02;7.13;;;6.53;;
57551;SDS011;43379;48.160;14.036;2023-04-06T12:19:28;7.60;;;6.13;;
57551;SDS011;43379;48.160;14.036;2023-04-06T12:21:54;5.80;;;5.30;;
57551;SDS011;43379;48.160;14.036;2023-04-06T12:24:20;6.30;;;5.80;;
57551;SDS011;43379;48.160;14.036;2023-04-06T12:26:46;7.40;;;6.67;;
57551;SDS011;43379;48.160;14.036;2023-04-06T12:29:11;7.10;;;6.60;;
57551;SDS011;43379;48.160;14.036;2023-04-06T12:31:38;6.53;;;5.93;;
57551;SDS011;43379;48.160;14.036;2023-04-06T12:34:06;7.47;;;6.87;;
57551;SDS011;43379;48.160;14.036;2023-04-06T12:36:32;6.50;;;5.80;;
57551;SDS011;43379;48.160;14.036;2023-04-06T12:38:58;8.27;;;6.50;;
57551;SDS011;43379;48.160;14.036;2023-04-06T12:41:25;6.93;;;6.33;;
57551;SDS011;43379;48.160;14.036;2023-04-06T12:43:51;6.83;;;6.33;;
57551;SDS011;43379;48.160;14.036;2023-04-06T12:46:17;8.23;;;6.33;;
57551;SDS011;43379;48.160;14.036;2023-04-06T12:48:43;6.63;;;6.00;;
57551;SDS011;43379;48.160;14.036;2023-04-06T12:51:08;7.70;;;6.93;;
57551;SDS011;43379;48.160;14.036;2023-04-06T12:53:34;6.77;;;6.13;;
57551;SDS011;43379;48.160;14.036;2023-04-06T12:56:01;7.77;;;7.07;;
57551;SDS011;43379;48.160;14.036;2023-04-06T12:58:27;7.10;;;6.50;;
57551;SDS011;43379;48.160;14.036;2023-04-06T13:00:54;7.07;;;6.37;;
57551;SDS011;43379;48.160;14.036;2023-04-06T13:03:22;6.60;;;6.00;;
57551;SDS011;43379;48.160;14.036;2023-04-06T13:05:51;6.90;;;6.30;;
57551;SDS011;43379;48.160;14.036;2023-04-06T13:08:18;6.97;;;6.20;;
57551;SDS011;43379;48.160;14.036;2023-04-06T13:10:48;7.63;;;6.00;;
57551;SDS011;43379;48.160;14.036;2023-04-06T13:13:15;7.67;;;6.10;;
57551;SDS011;43379;48.160;14.036;2023-04-06T13:15:41;6.47;;;5.97;;
57551;SDS011;43379;48.160;14.036;2023-04-06T13:18:07;5.40;;;4.90;;
57551;SDS011;43379;48.160;14.036;2023-04-06T13:20:33;6.30;;;5.80;;
57551;SDS011;43379;48.160;14.036;2023-04-06T13:22:59;6.73;;;6.10;;
57551;SDS011;43379;48.160;14.036;2023-04-06T13:25:25;5.80;;;5.40;;
57551;SDS011;43379;48.160;14.036;2023-04-06T13:27:50;6.87;;;6.37;;
57551;SDS011;43379;48.160;14.036;2023-04-06T13:30:16;7.17;;;6.50;;
57551;SDS011;43379;48.160;14.036;2023-04-06T13:32:42;6.20;;;5.60;;
57551;SDS011;43379;48.160;14.036;2023-04-06T13:35:08;7.57;;;6.80;;
57551;SDS011;43379;48.160;14.036;2023-04-06T13:37:34;7.13;;;6.43;;
57551;SDS011;43379;48.160;14.036;2023-04-06T13:40:03;6.10;;;5.50;;
57551;SDS011;43379;48.160;14.036;2023-04-06T13:42:30;6.73;;;6.13;;
57551;SDS011;43379;48.160;14.036;2023-04-06T13:44:56;7.50;;;6.60;;
57551;SDS011;43379;48.160;14.036;2023-04-06T13:47:22;5.60;;;5.10;;
57551;SDS011;43379;48.160;14.036;2023-04-06T13:49:49;5.40;;;4.90;;
57551;SDS011;43379;48.160;14.036;2023-04-06T13:52:16;5.87;;;5.37;;
57551;SDS011;43379;48.160;14.036;2023-04-06T13:54:42;5.50;;;5.00;;
57551;SDS011;43379;48.160;14.036;2023-04-06T13:57:08;5.97;;;5.47;;
57551;SDS011;43379;48.160;14.036;2023-04-06T13:59:34;6.20;;;5.60;;
57551;SDS011;43379;48.160;14.036;2023-04-06T14:02:04;6.43;;;5.93;;
57551;SDS011;43379;48.160;14.036;2023-04-06T14:04:31;6.37;;;5.77;;
57551;SDS011;43379;48.160;14.036;2023-04-06T14:06:57;6.03;;;5.50;;
57551;SDS011;43379;48.160;14.036;2023-04-06T14:09:24;7.20;;;6.70;;
57551;SDS011;43379;48.160;14.036;2023-04-06T14:11:50;7.10;;;6.47;;
57551;SDS011;43379;48.160;14.036;2023-04-06T14:14:16;5.57;;;5.13;;
57551;SDS011;43379;48.160;14.036;2023-04-06T14:16:42;6.30;;;5.80;;
57551;SDS011;43379;48.160;14.036;2023-04-06T14:19:11;6.60;;;5.93;;
57551;SDS011;43379;48.160;14.036;2023-04-06T14:21:39;7.00;;;6.37;;
57551;SDS011;43379;48.160;14.036;2023-04-06T14:24:07;5.53;;;5.13;;
57551;SDS011;43379;48.160;14.036;2023-04-06T14:26:38;6.13;;;5.63;;
57551;SDS011;43379;48.160;14.036;2023-04-06T14:29:04;7.30;;;6.70;;